Time;durP1;ratioP1;P1;durP2;ratioP2;P2;SDS_P1;SDS_P2;PMS_P1;PMS_P2;Temp;Humidity;BMP_temperature;BMP_pressure;BME280_temperature;BME280_humidity;BME280_pressure;Samples;Min_cycle;Max_cycle;Signal;HPM_P1;HPM_P2
2021/04/21 00:00:15;;;;;;;41.07;23.90;;;;;;;8.41;74.08;100006.22;116430;1199;23131;-81
2021/04/21 00:03:06;;;;;;;46.00;24.30;;;;;;;8.40;74.15;100001.91;116505;1200;23101;-81
2021/04/21 00:05:37;;;;;;;45.70;23.75;;;;;;;8.41;74.05;100011.78;116382;1200;23265;-81
2021/04/21 00:08:08;;;;;;;45.65;22.65;;;;;;;8.40;73.99;100008.22;116296;1199;23128;-81
2021/04/21 00:10:37;;;;;;;38.20;22.15;;;;;;;8.41;73.77;100006.22;116468;1199;23656;-81
2021/04/21 00:13:08;;;;;;;39.85;22.20;;;;;;;8.40;73.90;100011.00;116339;1200;27267;-81
2021/04/21 00:15:37;;;;;;;42.03;22.50;;;;;;;8.39;73.93;100006.70;116266;1198;25993;-81
2021/04/21 00:18:09;;;;;;;43.50;23.00;;;;;;;8.39;73.94;100009.48;116276;1199;23106;-81
2021/04/21 00:20:38;;;;;;;42.87;22.20;;;;;;;8.38;73.78;100001.61;116249;1200;23334;-81
2021/04/21 00:23:11;;;;;;;41.60;21.80;;;;;;;8.35;73.86;100003.31;116179;1198;24756;-81
2021/04/21 00:25:40;;;;;;;45.97;24.00;;;;;;;8.34;73.85;100001.76;116293;1199;23128;-81
2021/04/21 00:28:11;;;;;;;46.60;24.73;;;;;;;8.32;73.92;100003.48;116152;1199;23124;-81
2021/04/21 00:30:41;;;;;;;51.50;27.80;;;;;;;8.28;73.77;100006.42;116204;1199;23179;-81
2021/04/21 00:33:12;;;;;;;50.90;26.40;;;;;;;8.27;73.71;100002.11;116339;1199;26018;-81
2021/04/21 00:35:42;;;;;;;51.05;28.60;;;;;;;8.25;73.80;100001.81;116134;1199;23192;-81
2021/04/21 00:38:14;;;;;;;46.50;26.30;;;;;;;8.22;73.78;100002.70;116458;1200;23103;-81
2021/04/21 00:40:55;;;;;;;49.13;26.80;;;;;;;8.21;73.70;100009.52;116485;1199;23111;-80
2021/04/21 00:43:32;;;;;;;47.80;27.20;;;;;;;8.18;73.66;100008.44;116279;1199;23145;-81
2021/04/21 00:46:08;;;;;;;45.80;25.33;;;;;;;8.14;73.43;100002.27;116264;1199;23113;-81
2021/04/21 00:48:49;;;;;;;46.70;24.05;;;;;;;8.11;73.64;100005.23;116315;1199;23166;-81
2021/04/21 00:51:26;;;;;;;41.10;24.50;;;;;;;8.08;73.68;100001.37;116273;1200;23638;-81
2021/04/21 00:54:03;;;;;;;43.10;24.00;;;;;;;8.05;73.63;100007.84;116253;1199;23146;-81
2021/04/21 00:56:43;;;;;;;43.60;24.10;;;;;;;8.02;73.62;100006.02;116299;1200;23108;-81
2021/04/21 00:59:18;;;;;;;41.65;22.95;;;;;;;7.99;73.62;100003.38;116273;1199;26080;-81
2021/04/21 01:01:48;;;;;;;44.40;23.80;;;;;;;7.95;73.55;100002.78;116246;1200;23137;-81
2021/04/21 01:04:19;;;;;;;39.97;20.80;;;;;;;7.93;73.51;100005.25;116237;1200;23461;-82
2021/04/21 01:06:47;;;;;;;42.65;22.20;;;;;;;7.90;73.44;100003.42;116134;1199;23281;-81
2021/04/21 01:09:19;;;;;;;47.05;25.20;;;;;;;7.86;73.75;100011.16;116255;1200;23198;-81
2021/04/21 01:11:52;;;;;;;43.13;24.43;;;;;;;7.80;73.78;100007.45;116250;1199;23124;-82
2021/04/21 01:14:23;;;;;;;43.70;23.67;;;;;;;7.78;73.80;100009.94;116501;1199;23107;-81
2021/04/21 01:16:57;;;;;;;47.17;25.87;;;;;;;7.76;73.91;99998.52;116398;1198;23154;-81
2021/04/21 01:19:41;;;;;;;45.90;25.60;;;;;;;7.75;73.83;99999.73;116274;1200;23259;-81
2021/04/21 01:22:15;;;;;;;45.93;24.13;;;;;;;7.74;73.93;99995.43;116369;1200;23484;-81
2021/04/21 01:24:51;;;;;;;44.55;24.10;;;;;;;7.72;73.86;99997.88;116223;1200;26288;-81
2021/04/21 01:27:22;;;;;;;46.47;24.70;;;;;;;7.69;73.96;99996.04;116298;1199;26355;-81
2021/04/21 01:29:54;;;;;;;45.73;24.53;;;;;;;7.68;74.05;100002.82;116344;1199;23321;-80
2021/04/21 01:32:27;;;;;;;45.15;25.55;;;;;;;7.68;74.29;99995.27;116208;1199;26243;-81
2021/04/21 01:34:56;;;;;;;47.45;26.95;;;;;;;7.67;74.24;99990.95;116207;1199;23251;-81
2021/04/21 01:37:29;;;;;;;47.70;25.67;;;;;;;7.65;74.33;100000.98;116120;1199;27214;-80
2021/04/21 01:40:03;;;;;;;47.00;26.63;;;;;;;7.60;74.17;99994.04;116451;1199;23103;-81
2021/04/21 01:42:36;;;;;;;49.90;27.70;;;;;;;7.56;74.21;99995.42;116260;1199;23335;-80
2021/04/21 01:45:08;;;;;;;48.90;25.90;;;;;;;7.53;74.09;99990.82;116452;1199;23135;-81
2021/04/21 01:47:36;;;;;;;48.95;26.95;;;;;;;7.50;74.34;99994.51;116274;1199;23129;-82
2021/04/21 01:50:06;;;;;;;50.00;25.95;;;;;;;7.43;74.12;99992.06;116319;1199;23119;-81
2021/04/21 01:52:44;;;;;;;49.57;28.10;;;;;;;7.40;74.26;99992.98;116228;1200;23448;-81
2021/04/21 01:55:41;;;;;;;43.15;24.85;;;;;;;7.31;74.47;99994.52;116345;1198;23616;-81
2021/04/21 01:58:22;;;;;;;48.20;26.10;;;;;;;7.21;74.32;99990.20;115997;1201;26316;-81
2021/04/21 02:00:55;;;;;;;48.40;25.10;;;;;;;7.16;74.33;99993.58;115959;1203;23146;-81
2021/04/21 02:03:27;;;;;;;43.30;23.20;;;;;;;7.14;74.23;99987.72;116113;1203;26262;-80
2021/04/21 02:06:30;;;;;;;46.40;24.30;;;;;;;7.11;74.28;99990.66;116065;1203;23110;-81
2021/04/21 02:09:11;;;;;;;42.85;22.85;;;;;;;7.10;74.08;99994.65;116034;1203;23121;-81
2021/04/21 02:11:46;;;;;;;41.20;22.43;;;;;;;7.05;74.00;99984.95;115581;1202;23189;-81
2021/04/21 02:14:24;;;;;;;44.80;22.70;;;;;;;7.02;74.05;99988.64;115755;1203;23137;-80
2021/04/21 02:17:13;;;;;;;43.70;23.10;;;;;;;7.00;74.00;99985.55;115769;1203;23180;-81
2021/04/21 02:19:48;;;;;;;40.70;22.33;;;;;;;6.97;74.20;99988.48;115619;1202;23197;-80
2021/04/21 02:22:30;;;;;;;37.40;20.45;;;;;;;6.92;73.94;99978.77;115760;1203;23205;-80
2021/04/21 02:25:07;;;;;;;40.70;22.40;;;;;;;6.88;73.88;99978.14;115503;1201;23195;-81
2021/04/21 02:27:51;;;;;;;42.30;21.03;;;;;;;6.84;73.82;99985.84;115943;1203;24810;-81
2021/04/21 02:30:27;;;;;;;39.10;20.50;;;;;;;6.78;73.99;99984.91;115941;1203;23761;-82
2021/04/21 02:33:05;;;;;;;40.77;21.93;;;;;;;6.73;74.28;99988.28;115653;1205;23106;-81
2021/04/21 02:35:42;;;;;;;41.15;21.35;;;;;;;6.68;74.76;99980.58;115779;1199;23118;-81
2021/04/21 02:38:25;;;;;;;38.97;22.23;;;;;;;6.65;74.54;99981.48;116107;1199;23105;-81
2021/04/21 02:41:06;;;;;;;39.43;20.57;;;;;;;6.64;74.40;99982.72;116152;1199;23178;-80
2021/04/21 02:43:54;;;;;;;37.93;20.43;;;;;;;6.63;74.10;99983.16;116251;1198;23162;-80
2021/04/21 02:46:28;;;;;;;41.45;20.65;;;;;;;6.62;74.33;99982.38;116100;1199;23128;-81
2021/04/21 02:49:11;;;;;;;39.20;20.43;;;;;;;6.59;74.27;99982.53;116041;1199;23087;-80
2021/04/21 02:51:47;;;;;;;36.45;19.80;;;;;;;6.56;74.23;99989.02;115976;1199;23134;-81
2021/04/21 02:54:25;;;;;;;38.30;20.10;;;;;;;6.51;74.31;99979.29;116153;1199;23167;-81
2021/04/21 02:56:58;;;;;;;37.23;19.97;;;;;;;6.46;74.24;99980.66;116121;1199;23122;-80
2021/04/21 02:59:36;;;;;;;37.70;19.50;;;;;;;6.41;74.64;99977.72;116189;1199;23119;-81
2021/04/21 03:02:09;;;;;;;40.40;20.10;;;;;;;6.38;74.42;99981.39;116190;1200;23211;-81
2021/04/21 03:04:50;;;;;;;40.45;20.55;;;;;;;6.36;74.66;99986.63;116173;1199;23118;-81
2021/04/21 03:07:20;;;;;;;;;;;;;;;6.33;74.73;99982.01;116143;1206;23214;-81
2021/04/21 03:09:54;;;;;;;43.20;20.70;;;;;;;6.29;74.95;99981.38;115972;1199;24364;-81
2021/04/21 03:12:29;;;;;;;39.70;21.47;;;;;;;6.26;75.34;99980.28;116341;1200;24392;-80
2021/04/21 03:15:04;;;;;;;39.97;20.73;;;;;;;6.27;75.20;99978.29;115701;1199;23265;-81
2021/04/21 03:17:32;;;;;;;36.63;19.67;;;;;;;6.26;75.32;99977.51;115639;1199;23688;-81
2021/04/21 03:20:08;;;;;;;34.93;20.23;;;;;;;6.28;75.25;99977.05;115971;1199;27336;-81
2021/04/21 03:22:39;;;;;;;37.07;20.40;;;;;;;6.26;75.76;99982.27;115669;1200;23282;-81
2021/04/21 03:25:12;;;;;;;38.17;20.50;;;;;;;6.25;75.66;99975.17;115738;1199;23100;-81
2021/04/21 03:27:43;;;;;;;37.10;19.70;;;;;;;6.23;75.69;99972.86;115811;1199;23100;-81
2021/04/21 03:30:12;;;;;;;;;;;;;;;6.23;75.54;99972.86;115710;1206;23189;-81
2021/04/21 03:32:46;;;;;;;39.03;19.07;;;;;;;6.22;75.95;99976.88;115710;1200;22231;-80
2021/04/21 03:35:16;;;;;;;34.97;18.40;;;;;;;6.22;76.15;99976.88;115642;1200;24930;-81
2021/04/21 03:37:52;;;;;;;35.80;19.50;;;;;;;6.22;76.04;99974.11;115738;1200;23130;-81
2021/04/21 03:40:20;;;;;;;38.15;18.65;;;;;;;6.24;75.94;99974.42;115668;1200;24671;-81
2021/04/21 03:42:49;;;;;;;34.75;18.50;;;;;;;6.25;76.01;99973.17;115580;1200;23224;-81
2021/04/21 03:45:19;;;;;;;35.93;18.43;;;;;;;6.27;76.22;99975.52;115627;1199;23823;-80
2021/04/21 03:47:49;;;;;;;38.23;20.00;;;;;;;6.28;76.19;99975.05;115694;1203;23127;-81
2021/04/21 03:50:18;;;;;;;34.45;18.95;;;;;;;6.29;76.23;99970.28;115704;1200;23122;-81
2021/04/21 03:52:50;;;;;;;37.10;19.73;;;;;;;6.32;76.19;99963.81;115582;1200;26321;-80
2021/04/21 03:55:19;;;;;;;39.90;18.53;;;;;;;6.33;76.36;99976.46;116056;1203;23122;-80
2021/04/21 03:57:50;;;;;;;41.63;18.87;;;;;;;6.35;76.38;99965.69;116149;1200;23182;-81
2021/04/21 04:00:21;;;;;;;37.83;21.23;;;;;;;6.38;76.44;99964.75;116108;1199;23329;-81
2021/04/21 04:02:54;;;;;;;41.03;20.73;;;;;;;6.40;76.67;99971.39;116103;1200;23115;-80
2021/04/21 04:05:26;;;;;;;45.20;21.75;;;;;;;6.42;76.76;99968.16;116259;1200;23111;-81
2021/04/21 04:07:57;;;;;;;41.30;21.40;;;;;;;6.44;76.83;99965.70;115793;1202;23211;-81
2021/04/21 04:10:26;;;;;;;37.35;19.55;;;;;;;6.45;76.95;99972.80;115837;1202;24769;-81
2021/04/21 04:12:58;;;;;;;38.83;19.50;;;;;;;6.47;77.02;99970.34;115714;1199;24893;-81
2021/04/21 04:15:28;;;;;;;38.00;19.10;;;;;;;6.48;76.92;99971.88;115986;1199;24325;-81
2021/04/21 04:17:58;;;;;;;37.15;19.30;;;;;;;6.49;76.88;99976.20;115596;1198;27181;-81
2021/04/21 04:20:28;;;;;;;43.07;19.30;;;;;;;6.51;77.15;99976.52;115677;1200;23115;-81
2021/04/21 04:23:03;;;;;;;41.83;18.47;;;;;;;6.53;77.15;99971.28;116024;1199;24806;-81
2021/04/21 04:25:33;;;;;;;38.27;19.37;;;;;;;6.54;77.45;99968.05;116086;1200;26072;-81
2021/04/21 04:28:03;;;;;;;38.85;20.48;;;;;;;6.57;77.33;99974.68;116059;1199;23269;-80
2021/04/21 04:30:32;;;;;;;36.93;18.87;;;;;;;6.60;77.20;99976.52;115891;1200;23298;-81
2021/04/21 04:33:01;;;;;;;38.90;19.25;;;;;;;6.62;77.38;99985.16;115984;1199;27129;-81
2021/04/21 04:35:30;;;;;;;41.85;20.50;;;;;;;6.66;77.22;99979.48;115738;1199;24756;-81
2021/04/21 04:38:01;;;;;;;41.15;20.70;;;;;;;6.69;77.32;99986.88;115753;1200;23138;-82
2021/04/21 04:40:32;;;;;;;37.03;19.10;;;;;;;6.71;77.39;99979.64;116106;1199;23108;-80
2021/04/21 04:43:01;;;;;;;37.03;20.77;;;;;;;6.75;77.54;99979.48;115906;1198;23120;-81
2021/04/21 04:45:31;;;;;;;38.20;19.80;;;;;;;6.78;77.67;99986.91;116027;1200;23445;-81
2021/04/21 04:48:03;;;;;;;40.50;20.67;;;;;;;6.80;77.56;99982.45;116117;1200;26361;-81
2021/04/21 04:50:34;;;;;;;37.33;21.03;;;;;;;6.84;77.88;99982.29;116169;1199;27171;-81
2021/04/21 04:53:03;;;;;;;44.50;22.30;;;;;;;6.85;77.94;99987.38;116174;1199;23142;-81
2021/04/21 04:55:33;;;;;;;42.70;24.13;;;;;;;6.90;77.90;99986.00;116202;1199;23118;-81
2021/04/21 04:58:05;;;;;;;42.55;21.30;;;;;;;6.92;78.12;99992.64;116052;1200;23143;-80
2021/04/21 05:00:35;;;;;;;38.20;21.00;;;;;;;6.94;78.23;99990.17;116115;1202;23106;-81
2021/04/21 05:03:14;;;;;;;41.50;21.40;;;;;;;6.97;78.16;99997.56;115794;1199;23080;-82
2021/04/21 05:05:44;;;;;;;39.40;21.70;;;;;;;7.01;78.54;99997.44;115863;1199;23133;-80
2021/04/21 05:08:16;;;;;;;41.40;21.13;;;;;;;7.03;78.28;99995.75;115960;1199;23116;-80
2021/04/21 05:10:55;;;;;;;39.10;21.20;;;;;;;7.07;78.50;99993.59;116283;1200;23168;-80
2021/04/21 05:13:28;;;;;;;51.40;22.93;;;;;;;7.11;78.53;99990.66;116330;1200;26596;-80
2021/04/21 05:16:24;;;;;;;41.10;22.50;;;;;;;7.15;78.73;99988.50;115901;1199;23449;-79
2021/04/21 05:19:33;;;;;;;41.30;22.35;;;;;;;7.19;78.65;99989.89;115944;1200;23130;-79
2021/04/21 05:22:37;;;;;;;41.30;20.70;;;;;;;7.25;78.82;99990.82;115798;1200;27258;-79
2021/04/21 05:25:50;;;;;;;41.30;22.10;;;;;;;7.30;78.71;99990.19;116053;1200;23211;-80
2021/04/21 05:28:57;;;;;;;39.83;20.40;;;;;;;7.37;78.97;99985.59;116304;1199;23137;-80
2021/04/21 05:31:59;;;;;;;50.23;22.77;;;;;;;7.42;78.97;99993.28;116455;1200;24556;-80
2021/04/21 05:35:14;;;;;;;42.50;21.70;;;;;;;7.49;79.22;99996.51;116522;1198;23128;-81
2021/04/21 05:38:14;;;;;;;36.83;20.07;;;;;;;7.57;79.45;99989.43;116428;1199;23173;-79
2021/04/21 05:41:01;;;;;;;49.00;21.23;;;;;;;7.66;79.28;99992.18;116255;1199;23324;-80
2021/04/21 05:44:20;;;;;;;42.03;21.13;;;;;;;7.71;79.20;99994.34;116315;1200;23111;-80
2021/04/21 05:47:40;;;;;;;37.07;20.53;;;;;;;7.77;79.25;99991.70;116481;1200;24762;-80
2021/04/21 05:50:53;;;;;;;36.83;20.93;;;;;;;7.84;79.39;99994.92;116077;1199;23122;-80
2021/04/21 05:54:02;;;;;;;37.40;19.60;;;;;;;7.93;79.63;100005.25;116342;1203;23183;-80
2021/04/21 05:57:08;;;;;;;40.90;22.65;;;;;;;8.04;79.80;99999.98;115551;1203;23171;-80
2021/04/21 06:00:04;;;;;;;40.05;21.45;;;;;;;8.16;79.53;99999.02;115444;1203;23135;-80
2021/04/21 06:02:35;;;;;;;39.20;19.70;;;;;;;8.29;79.57;100007.20;115500;1202;23499;-80
2021/04/21 06:05:08;;;;;;;42.00;21.70;;;;;;;8.36;79.38;100007.62;115703;1203;23146;-80
2021/04/21 06:07:37;;;;;;;40.00;21.20;;;;;;;8.43;79.31;100003.73;115694;1203;25891;-80
2021/04/21 06:10:23;;;;;;;35.85;20.70;;;;;;;8.49;79.18;100004.63;115471;1201;23177;-81
2021/04/21 06:12:58;;;;;;;39.10;21.15;;;;;;;8.55;79.10;100006.31;115628;1202;23225;-80
2021/04/21 06:15:29;;;;;;;41.00;22.30;;;;;;;8.62;79.12;100000.41;115593;1202;23140;-80
2021/04/21 06:17:58;;;;;;;38.00;20.20;;;;;;;8.70;79.31;100001.61;115817;1203;23141;-80
2021/04/21 06:20:32;;;;;;;35.10;19.40;;;;;;;8.79;78.93;100004.31;115749;1203;23224;-80
2021/04/21 06:23:05;;;;;;;34.00;15.85;;;;;;;8.90;78.61;100001.02;115610;1202;23277;-80
2021/04/21 06:25:34;;;;;;;28.05;14.60;;;;;;;9.06;78.47;100002.63;115820;1202;23139;-80
2021/04/21 06:28:15;;;;;;;24.87;12.70;;;;;;;9.24;77.84;100005.28;116126;1202;23418;-79
2021/04/21 06:31:11;;;;;;;24.30;10.97;;;;;;;9.42;77.44;100000.33;117687;1198;24474;-81
2021/04/21 06:33:42;;;;;;;21.87;11.03;;;;;;;9.62;77.08;100003.25;116969;1200;23120;-81
2021/04/21 06:36:11;;;;;;;;;;;;;;;9.79;76.77;100001.55;116724;1204;23133;-81
2021/04/21 06:38:40;;;;;;;25.20;10.90;;;;;;;9.96;76.71;99999.05;116802;1200;21612;-80
2021/04/21 06:41:09;;;;;;;27.23;11.88;;;;;;;10.08;76.23;100005.58;116627;1199;23138;-80
2021/04/21 06:43:43;;;;;;;24.90;11.80;;;;;;;10.20;76.65;100007.36;116094;1197;23374;-80
2021/04/21 06:46:11;;;;;;;24.60;11.70;;;;;;;10.29;76.19;99996.86;117020;1199;23115;-79
2021/04/21 06:48:40;;;;;;;23.35;11.70;;;;;;;10.42;75.63;100000.12;116731;1199;23370;-80
2021/04/21 06:51:11;;;;;;;24.23;10.83;;;;;;;10.56;75.16;100006.91;116424;1198;25996;-79
2021/04/21 06:53:41;;;;;;;26.30;10.90;;;;;;;10.69;75.28;99998.22;116302;1200;23115;-81
2021/04/21 06:56:11;;;;;;;25.30;12.10;;;;;;;10.83;75.66;99992.59;117309;1199;23218;-81
2021/04/21 06:58:41;;;;;;;26.75;11.50;;;;;;;10.97;74.58;99999.36;116687;1199;23577;-81
2021/04/21 07:01:10;;;;;;;24.87;10.97;;;;;;;11.02;74.66;99996.66;116628;1199;23099;-81
2021/04/21 07:03:40;;;;;;;25.40;9.50;;;;;;;11.06;74.43;99996.45;116701;1199;23125;-83
2021/04/21 07:06:09;;;;;;;22.80;9.65;;;;;;;11.04;73.40;100001.76;116785;1199;23124;-81
2021/04/21 07:08:38;;;;;;;24.50;9.40;;;;;;;11.00;73.78;99993.59;116693;1200;23111;-82
2021/04/21 07:11:10;;;;;;;24.10;11.00;;;;;;;10.96;73.72;99992.25;116715;1200;23269;-81
2021/04/21 07:13:43;;;;;;;23.87;9.77;;;;;;;10.90;73.43;99997.00;116509;1199;23126;-82
2021/04/21 07:16:16;;;;;;;20.47;9.13;;;;;;;10.87;73.05;100000.75;116586;1198;24800;-81
2021/04/21 07:18:51;;;;;;;23.20;9.75;;;;;;;10.91;73.70;99999.30;116533;1199;23128;-81
2021/04/21 07:21:20;;;;;;;24.83;11.00;;;;;;;10.95;73.88;99999.86;116523;1199;23099;-82
2021/04/21 07:23:52;;;;;;;22.77;9.53;;;;;;;11.01;73.62;99995.11;116587;1199;23176;-81
2021/04/21 07:26:28;;;;;;;26.17;10.23;;;;;;;11.08;73.59;100005.11;116704;1199;23105;-82
2021/04/21 07:29:00;;;;;;;23.75;10.65;;;;;;;11.13;73.11;100001.63;116496;1199;26018;-82
2021/04/21 07:31:35;;;;;;;23.93;9.80;;;;;;;11.18;73.01;100003.71;116607;1199;23177;-81
2021/04/21 07:34:04;;;;;;;20.30;9.17;;;;;;;11.24;72.24;99990.58;116612;1198;23090;-82
2021/04/21 07:36:45;;;;;;;23.20;10.65;;;;;;;11.30;72.65;99997.00;116656;1198;23269;-82
2021/04/21 07:39:14;;;;;;;21.10;8.45;;;;;;;11.38;72.48;99993.29;116468;1197;26326;-81
2021/04/21 07:41:45;;;;;;;22.45;9.60;;;;;;;11.45;72.47;99989.31;116585;1199;23120;-81
2021/04/21 07:44:28;;;;;;;21.60;8.87;;;;;;;11.56;72.12;99989.44;116805;1199;23121;-82
2021/04/21 07:47:11;;;;;;;18.85;8.85;;;;;;;11.62;71.72;99993.06;116766;1199;23091;-82
2021/04/21 07:49:41;;;;;;;24.00;9.00;;;;;;;11.67;71.43;99995.16;116615;1199;23100;-81
2021/04/21 07:52:20;;;;;;;23.53;8.43;;;;;;;11.73;71.44;99987.59;116487;1200;23115;-81
2021/04/21 07:54:51;;;;;;;16.97;8.03;;;;;;;11.83;70.91;99991.79;116666;1198;23358;-81
2021/04/21 07:57:20;;;;;;;20.80;9.80;;;;;;;11.93;71.37;99992.38;116697;1200;23224;-81
2021/04/21 07:59:49;;;;;;;21.17;8.40;;;;;;;12.00;71.18;99998.29;116690;1198;23100;-81
2021/04/21 08:02:21;;;;;;;22.05;7.55;;;;;;;12.11;70.17;99992.81;116609;1199;23855;-81
2021/04/21 08:04:56;;;;;;;19.45;9.65;;;;;;;12.17;71.25;99984.45;116741;1197;23103;-81
2021/04/21 08:07:41;;;;;;;19.45;8.10;;;;;;;12.31;70.32;99993.99;116641;1199;23074;-81
2021/04/21 08:10:23;;;;;;;18.90;8.90;;;;;;;12.43;69.62;99999.18;116632;1199;23147;-80
2021/04/21 08:12:53;;;;;;;20.13;8.37;;;;;;;12.54;69.70;99990.09;116627;1199;23115;-81
2021/04/21 08:15:28;;;;;;;19.00;8.83;;;;;;;12.64;69.18;99983.78;116588;1199;26265;-81
2021/04/21 08:18:01;;;;;;;19.33;8.87;;;;;;;12.76;69.12;99995.84;116453;1199;27436;-81
2021/04/21 08:20:33;;;;;;;18.70;8.90;;;;;;;12.83;68.56;99990.52;116749;1200;23090;-81
2021/04/21 08:23:04;;;;;;;20.40;8.30;;;;;;;12.90;68.04;99994.90;116610;1199;24948;-82
2021/04/21 08:25:35;;;;;;;22.37;8.23;;;;;;;12.94;68.04;99999.00;116733;1199;23111;-82
2021/04/21 08:28:05;;;;;;;22.10;8.70;;;;;;;13.02;67.56;99996.48;116571;1200;23171;-81
2021/04/21 08:30:34;;;;;;;20.52;9.35;;;;;;;13.02;67.42;99999.29;116602;1199;25476;-81
2021/04/21 08:33:03;;;;;;;22.00;9.67;;;;;;;13.09;67.79;100006.48;116598;1198;23182;-81
2021/04/21 08:35:32;;;;;;;23.43;8.37;;;;;;;13.17;67.32;100004.75;116582;1199;26300;-81
2021/04/21 08:38:03;;;;;;;17.90;7.60;;;;;;;13.25;67.63;100006.57;116657;1200;23127;-81
2021/04/21 08:40:32;;;;;;;18.67;6.93;;;;;;;13.29;65.79;99997.91;116525;1199;23151;-81
2021/04/21 08:43:04;;;;;;;23.00;9.20;;;;;;;13.30;66.20;100002.27;116477;1200;23128;-82
2021/04/21 08:45:33;;;;;;;20.90;8.10;;;;;;;13.37;65.83;99996.93;116487;1199;23128;-81
2021/04/21 08:48:06;;;;;;;18.60;7.60;;;;;;;13.48;65.95;99991.38;116399;1199;26233;-81
2021/04/21 08:50:37;;;;;;;18.80;6.40;;;;;;;13.59;65.59;99991.38;116452;1199;23141;-81
2021/04/21 08:53:06;;;;;;;;;;;;;;;13.64;63.95;100003.90;116428;1206;23160;-81
2021/04/21 08:55:37;;;;;;;21.20;6.30;;;;;;;13.71;64.91;99998.58;116562;1199;21610;-80
2021/04/21 08:58:08;;;;;;;16.90;6.57;;;;;;;13.77;64.38;100004.20;116625;1200;23220;-81
2021/04/21 09:00:39;;;;;;;17.45;6.40;;;;;;;13.84;63.87;100003.71;116703;1199;23141;-81
2021/04/21 09:03:08;;;;;;;16.67;4.77;;;;;;;13.91;62.44;99999.62;116624;1199;23111;-81
2021/04/21 09:05:39;;;;;;;15.65;5.75;;;;;;;13.98;62.22;100004.75;116647;1199;23113;-81
2021/04/21 09:08:10;;;;;;;15.13;5.47;;;;;;;14.04;63.00;99999.90;116561;1200;23114;-81
2021/04/21 09:10:39;;;;;;;15.75;6.05;;;;;;;14.10;62.52;100000.67;116733;1200;23266;-82
2021/04/21 09:13:11;;;;;;;17.70;6.67;;;;;;;14.19;62.66;100003.24;116847;1199;24363;-82
2021/04/21 09:15:39;;;;;;;21.30;6.65;;;;;;;14.23;62.50;100003.75;116492;1199;24900;-82
2021/04/21 09:18:08;;;;;;;12.07;4.13;;;;;;;14.28;60.60;100003.77;116479;1200;23236;-82
2021/04/21 09:20:45;;;;;;;14.43;4.73;;;;;;;14.33;60.39;99996.63;116460;1199;23163;-82
2021/04/21 09:23:14;;;;;;;14.70;4.80;;;;;;;14.33;59.73;100005.83;116485;1199;24607;-81
2021/04/21 09:25:44;;;;;;;15.23;4.50;;;;;;;14.33;58.62;99994.59;116570;1200;23104;-82
2021/04/21 09:28:14;;;;;;;13.80;3.80;;;;;;;14.36;59.95;99999.17;116466;1199;26249;-80
2021/04/21 09:30:45;;;;;;;16.97;5.63;;;;;;;14.39;60.46;99986.94;116714;1199;23162;-81
2021/04/21 09:33:14;;;;;;;15.00;4.45;;;;;;;14.39;58.03;99980.55;116634;1199;23259;-81
2021/04/21 09:35:44;;;;;;;8.47;3.10;;;;;;;14.40;57.74;99988.45;116815;1199;23127;-81
2021/04/21 09:38:15;;;;;;;14.30;3.70;;;;;;;14.47;58.04;99987.17;116647;1199;23128;-82
2021/04/21 09:40:48;;;;;;;12.10;4.00;;;;;;;14.42;57.22;99988.70;116766;1199;23244;-81
2021/04/21 09:43:24;;;;;;;13.10;4.40;;;;;;;14.42;58.19;99982.34;116714;1199;23129;-80
2021/04/21 09:45:55;;;;;;;11.55;4.50;;;;;;;14.52;59.06;99980.80;116597;1199;23581;-80
2021/04/21 09:48:28;;;;;;;11.70;3.25;;;;;;;14.60;55.22;99990.23;116546;1199;23120;-81
2021/04/21 09:50:59;;;;;;;9.45;3.10;;;;;;;14.57;55.37;99977.20;116514;1199;23128;-81
2021/04/21 09:53:35;;;;;;;14.10;3.95;;;;;;;14.51;56.24;99974.41;116590;1199;23138;-81
2021/04/21 09:56:17;;;;;;;13.25;4.45;;;;;;;14.46;56.28;99977.23;116541;1199;26259;-81
2021/04/21 09:58:49;;;;;;;15.13;4.10;;;;;;;14.40;55.81;99971.59;116614;1199;28773;-81
2021/04/21 10:01:30;;;;;;;13.05;4.40;;;;;;;14.40;56.06;99971.59;116625;1199;24798;-80
2021/04/21 10:04:11;;;;;;;13.60;3.60;;;;;;;14.45;53.54;99981.30;116476;1199;23144;-81
2021/04/21 10:06:48;;;;;;;10.47;2.97;;;;;;;14.41;55.03;99970.34;116696;1199;23160;-81
2021/04/21 10:09:33;;;;;;;10.70;2.70;;;;;;;14.38;54.39;99976.96;116768;1199;23148;-81
2021/04/21 10:12:18;;;;;;;12.35;3.75;;;;;;;14.37;54.59;99974.67;116961;1199;26018;-81
2021/04/21 10:14:50;;;;;;;10.65;3.45;;;;;;;14.28;54.16;99975.69;116740;1199;22985;-81
2021/04/21 10:17:21;;;;;;;12.30;2.63;;;;;;;14.28;52.80;99970.08;116729;1199;23260;-80
2021/04/21 10:19:50;;;;;;;11.23;2.65;;;;;;;14.34;54.20;99976.45;116702;1199;23121;-81
2021/04/21 10:22:19;;;;;;;13.20;3.63;;;;;;;14.37;53.79;99969.06;116720;1199;23091;-80
2021/04/21 10:24:51;;;;;;;13.18;3.48;;;;;;;14.38;53.44;99968.53;116626;1200;23111;-81
2021/04/21 10:27:20;;;;;;;14.90;4.83;;;;;;;14.46;54.02;99963.19;116646;1199;26039;-81
2021/04/21 10:29:49;;;;;;;23.35;4.80;;;;;;;14.49;54.17;99962.14;116716;1199;23135;-81
2021/04/21 10:32:20;;;;;;;13.17;4.47;;;;;;;14.51;54.02;99965.20;116693;1199;26628;-82
2021/04/21 10:34:49;;;;;;;13.55;3.70;;;;;;;14.50;53.29;99963.69;116732;1199;23109;-81
2021/04/21 10:41:34;;;;;;;;;;;;;;;;;;;;;
2021/04/21 10:44:31;;;;;;;13.25;3.00;;;;;;;14.45;52.79;99956.80;117071;1200;23034;-81
2021/04/21 10:47:11;;;;;;;9.70;2.90;;;;;;;14.58;52.20;99950.65;116743;1200;23123;-81
2021/04/21 10:49:52;;;;;;;9.80;2.60;;;;;;;14.73;51.97;99953.95;116587;1200;23119;-80
2021/04/21 10:52:23;;;;;;;12.43;2.77;;;;;;;14.81;51.35;99946.52;116439;1199;23127;-81
2021/04/21 10:54:55;;;;;;;11.90;2.37;;;;;;;14.84;51.39;99947.50;116746;1199;23489;-80
2021/04/21 10:57:32;;;;;;;14.27;3.03;;;;;;;14.80;50.21;99959.02;116624;1199;23094;-80
2021/04/21 11:00:17;;;;;;;12.50;2.63;;;;;;;14.73;49.21;99953.95;116606;1198;25981;-80
2021/04/21 11:02:58;;;;;;;9.17;2.03;;;;;;;14.65;50.27;99963.41;116723;1199;23394;-81
2021/04/21 11:05:41;;;;;;;11.90;2.30;;;;;;;14.56;50.66;99956.79;116756;1199;25998;-80
2021/04/21 11:08:12;;;;;;;17.77;2.47;;;;;;;14.54;49.30;99956.54;116507;1198;24505;-80
2021/04/21 11:10:45;;;;;;;;;;;;;;;14.51;48.63;99951.94;116579;1204;26288;-80
2021/04/21 11:13:15;;;;;;;8.50;2.40;;;;;;;14.45;50.67;99958.83;116611;1200;24670;-81
2021/04/21 11:15:46;;;;;;;11.70;2.70;;;;;;;14.38;49.66;99950.94;116476;1200;23720;-80
2021/04/21 11:18:38;;;;;;;10.75;2.40;;;;;;;14.34;49.50;99961.64;116593;1199;28531;-81
2021/04/21 11:21:09;;;;;;;11.70;2.65;;;;;;;14.31;50.45;99949.41;116491;1199;24764;-81
2021/04/21 11:23:59;;;;;;;10.73;2.80;;;;;;;14.31;50.17;99949.41;116453;1199;23777;-81
2021/04/21 11:26:44;;;;;;;9.75;2.45;;;;;;;14.34;49.65;99941.98;116491;1200;23156;-81
2021/04/21 11:29:16;;;;;;;12.35;2.95;;;;;;;14.41;49.94;99944.28;116495;1200;23235;-81
2021/04/21 11:32:12;;;;;;;9.60;2.37;;;;;;;14.50;50.25;99941.96;116510;1199;26773;-81
2021/04/21 11:34:42;;;;;;;10.80;2.20;;;;;;;14.67;48.91;99938.38;116569;1199;23243;-81
2021/04/21 11:37:12;;;;;;;12.43;2.27;;;;;;;14.82;48.46;99936.79;116610;1199;23154;-81
2021/04/21 11:40:07;;;;;;;7.95;1.95;;;;;;;14.92;46.82;99946.46;116466;1198;23084;-80
2021/04/21 11:42:44;;;;;;;12.25;2.35;;;;;;;14.91;46.69;99939.33;116549;1199;23221;-82
2021/04/21 11:45:25;;;;;;;18.60;2.90;;;;;;;14.89;46.17;99941.89;116567;1199;23127;-82
2021/04/21 11:47:56;;;;;;;7.40;1.67;;;;;;;14.86;47.23;99961.81;116526;1200;23106;-81
2021/04/21 11:50:30;;;;;;;9.80;2.90;;;;;;;14.79;47.28;99946.27;116458;1199;23110;-82
2021/04/21 11:53:12;;;;;;;10.90;2.10;;;;;;;14.75;47.73;99939.38;116570;1197;23147;-82
2021/04/21 11:55:51;;;;;;;11.80;2.40;;;;;;;14.72;48.71;99940.39;116459;1200;23142;-82
2021/04/21 11:58:25;;;;;;;11.30;3.20;;;;;;;14.74;49.23;99932.98;116361;1199;23131;-81